Terminal Aerodrome Forecast
Issued by NWS Charleston, WV

Current Version | Previous Version | Graphics & Text | Print | Product List | Glossary On
Versions: 1 2 3 4 5 6 7 8 9 10 11 12 13 14 15 16 17 18 19 20 21
000
FTUS41 KRLX 222323
TAFHTS
TAF
KHTS 222323Z 2300/2324 VRB04KT P6SM SCT200
     FM230900 VRB03KT 6SM BR SCT150
     FM231200 VRB03KT P6SM SCT140
     FM232000 11004KT P6SM BKN090=

USA.gov is the U.S. government's official web portal to all federal, state and local government web resources and services.